createdAt,value
2022-08-30T00:04:41.681Z,77.60
2022-08-30T00:09:50.536Z,78.20
2022-08-30T00:15:18.146Z,80.60
2022-08-30T00:20:26.231Z,81.50
2022-08-30T00:25:32.262Z,81.00
2022-08-30T00:30:39.047Z,81.20
2022-08-30T00:35:54.902Z,80.90
2022-08-30T00:41:04.443Z,80.50
2022-08-30T00:46:10.615Z,80.50
2022-08-30T00:51:15.102Z,80.90
2022-08-30T00:56:24.048Z,80.50
2022-08-30T01:01:39.590Z,81.80
2022-08-30T01:06:43.722Z,82.70
2022-08-30T01:11:57.472Z,83.00
2022-08-30T01:17:04.537Z,83.40
2022-08-30T01:22:14.191Z,84.00
2022-08-30T01:27:22.260Z,83.20
2022-08-30T01:32:29.720Z,83.70
2022-08-30T01:37:37.309Z,83.20
2022-08-30T01:42:44.769Z,83.80
2022-08-30T01:48:03.762Z,83.80
2022-08-30T01:53:33.055Z,83.90
2022-08-30T01:58:39.253Z,84.20
2022-08-30T02:03:47.263Z,85.00
2022-08-30T02:08:53.206Z,85.30
2022-08-30T02:14:09.150Z,85.00
2022-08-30T02:19:22.469Z,85.90
2022-08-30T02:24:35.981Z,85.50
2022-08-30T02:29:41.294Z,86.00
2022-08-30T02:34:46.337Z,86.00
2022-08-30T02:39:50.565Z,87.10
2022-08-30T02:44:58.984Z,87.10
2022-08-30T02:50:09.584Z,87.90
2022-08-30T02:55:15.654Z,88.30
2022-08-30T03:00:28.114Z,88.40
2022-08-30T03:05:37.929Z,88.40
2022-08-30T03:10:49.640Z,88.50
2022-08-30T03:15:55.264Z,89.40
2022-08-30T03:21:02.681Z,89.30
2022-08-30T03:26:09.780Z,88.60
2022-08-30T03:31:21.826Z,88.80
2022-08-30T03:36:29.654Z,88.90
2022-08-30T03:41:36.559Z,87.50
2022-08-30T03:46:43.089Z,87.50
2022-08-30T03:52:08.180Z,88.00
2022-08-30T03:57:19.853Z,88.70
2022-08-30T04:02:32.281Z,89.60
2022-08-30T04:07:43.974Z,90.20
2022-08-30T04:12:52.017Z,90.70
2022-08-30T04:18:09.445Z,90.40
2022-08-30T04:23:17.413Z,91.30
2022-08-30T04:28:34.668Z,90.60
2022-08-30T04:33:46.922Z,90.20
2022-08-30T04:39:03.157Z,90.50
2022-08-30T04:44:18.629Z,90.50
2022-08-30T04:49:30.287Z,90.30
2022-08-30T04:54:37.974Z,90.30
2022-08-30T04:59:52.102Z,91.00
2022-08-30T05:05:14.936Z,90.60
2022-08-30T05:10:21.810Z,90.60
2022-08-30T05:15:42.573Z,90.10
2022-08-30T05:21:04.241Z,90.50
2022-08-30T05:26:12.335Z,90.30
2022-08-30T05:31:17.350Z,90.10
2022-08-30T05:36:23.784Z,89.30
2022-08-30T05:41:29.990Z,88.00
2022-08-30T05:46:46.655Z,87.90
2022-08-30T05:51:51.821Z,86.40
2022-08-30T05:56:57.001Z,86.10
2022-08-30T06:02:02.972Z,84.60
2022-08-30T06:07:10.550Z,84.40
2022-08-30T06:12:16.825Z,84.10
2022-08-30T06:17:20.689Z,83.90
2022-08-30T06:22:26.352Z,82.80
2022-08-30T06:27:43.685Z,82.70
2022-08-30T06:32:47.464Z,81.50
2022-08-30T06:37:57.987Z,80.80
2022-08-30T06:43:03.928Z,80.80
2022-08-30T06:48:10.572Z,78.80
2022-08-30T06:53:16.428Z,79.00
2022-08-30T06:58:20.324Z,77.40
2022-08-30T07:03:27.719Z,77.00
2022-08-30T07:08:33.105Z,78.30
2022-08-30T07:13:38.192Z,76.30
2022-08-30T07:18:55.352Z,76.10
2022-08-30T07:24:01.346Z,73.80
2022-08-30T07:29:05.298Z,72.80
2022-08-30T07:34:11.483Z,71.20
2022-08-30T07:39:16.847Z,70.60
2022-08-30T07:44:20.620Z,70.90
2022-08-30T07:49:28.425Z,69.80
2022-08-30T07:54:36.269Z,68.30
2022-08-30T07:59:41.969Z,68.70
2022-08-30T08:04:46.759Z,64.80
2022-08-30T08:09:51.708Z,66.30
2022-08-30T08:14:58.602Z,64.30
2022-08-30T08:20:02.355Z,62.40
2022-08-30T08:25:11.061Z,60.30
2022-08-30T08:30:17.498Z,60.30
2022-08-30T08:35:21.216Z,59.90
2022-08-30T08:40:34.980Z,59.00
2022-08-30T08:45:45.366Z,60.00
2022-08-30T08:51:05.518Z,57.80
2022-08-30T08:56:13.261Z,57.30
2022-08-30T09:01:22.603Z,57.10
2022-08-30T09:06:41.789Z,55.90
2022-08-30T09:11:51.477Z,55.40
2022-08-30T09:17:03.936Z,55.90
2022-08-30T09:22:15.189Z,54.30
2022-08-30T09:27:24.133Z,54.40
2022-08-30T09:32:35.356Z,57.60
2022-08-30T09:37:41.005Z,53.80
2022-08-30T09:42:59.718Z,53.30
2022-08-30T09:48:30.112Z,53.10
2022-08-30T09:53:36.288Z,51.30
2022-08-30T09:58:51.319Z,51.30
2022-08-30T10:03:58.257Z,53.00
2022-08-30T10:09:08.954Z,51.30
2022-08-30T10:14:30.384Z,59.30
2022-08-30T10:19:44.144Z,51.00
2022-08-30T10:24:49.543Z,49.40
2022-08-30T10:29:59.551Z,51.30
2022-08-30T10:35:06.737Z,49.20
2022-08-30T10:40:28.136Z,48.20
2022-08-30T10:45:35.697Z,49.50
2022-08-30T10:50:41.826Z,48.00
2022-08-30T10:55:50.085Z,47.00
2022-08-30T11:01:08.789Z,47.90
2022-08-30T11:06:19.898Z,47.60
2022-08-30T11:11:30.985Z,47.70
2022-08-30T11:16:38.157Z,45.20
2022-08-30T11:21:51.070Z,45.00
2022-08-30T11:27:04.980Z,45.70
2022-08-30T11:33:09.370Z,45.10
2022-08-30T11:38:21.169Z,46.80
2022-08-30T11:44:07.304Z,47.00
2022-08-30T11:49:46.113Z,43.80
2022-08-30T11:54:56.184Z,45.10
2022-08-30T12:00:07.509Z,44.20
2022-08-30T12:05:44.457Z,45.00
2022-08-30T12:10:58.213Z,41.90
2022-08-30T12:16:02.230Z,41.60
2022-08-30T12:21:24.608Z,42.20
2022-08-30T12:26:39.291Z,41.80
2022-08-30T12:31:49.567Z,43.80
2022-08-30T12:37:04.790Z,43.60
2022-08-30T12:42:22.590Z,45.10
2022-08-30T12:47:28.146Z,41.80
2022-08-30T12:52:36.858Z,45.10
2022-08-30T12:57:45.810Z,43.70
2022-08-30T13:02:53.756Z,42.00
2022-08-30T13:08:15.360Z,42.90
2022-08-30T13:13:34.398Z,45.40
2022-08-30T13:18:38.396Z,48.20
2022-08-30T13:23:42.568Z,45.60
2022-08-30T13:28:51.896Z,44.40
2022-08-30T13:33:55.738Z,45.80
2022-08-30T13:39:01.158Z,47.20
2022-08-30T13:44:11.612Z,45.80
2022-08-30T13:54:51.111Z,45.40
2022-08-30T13:59:59.765Z,45.90
2022-08-30T14:05:04.082Z,46.40
2022-08-30T14:10:32.021Z,48.70
2022-08-30T14:15:41.808Z,45.90
2022-08-30T14:20:51.281Z,47.80
2022-08-30T14:25:54.956Z,48.10
2022-08-30T14:31:00.019Z,46.70
2022-08-30T14:36:15.376Z,47.10
2022-08-30T14:41:19.447Z,46.70
2022-08-30T14:46:26.833Z,48.00
2022-08-30T14:51:37.110Z,48.30
2022-08-30T14:56:44.404Z,47.00
2022-08-30T15:01:49.471Z,47.40
2022-08-30T15:06:53.218Z,43.40
2022-08-30T15:12:06.986Z,43.10
2022-08-30T15:17:14.239Z,44.40
2022-08-30T15:22:19.275Z,45.80
2022-08-30T15:27:23.951Z,45.70
2022-08-30T15:32:28.926Z,45.00
2022-08-30T15:37:35.475Z,43.60
2022-08-30T15:42:47.555Z,43.10
2022-08-30T15:47:53.247Z,43.80
2022-08-30T15:53:03.216Z,42.30
2022-08-30T15:58:07.198Z,42.30
2022-08-30T16:03:13.187Z,42.80
2022-08-30T16:08:21.107Z,43.50
2022-08-30T16:13:25.180Z,43.40
2022-08-30T16:18:37.572Z,44.60
2022-08-30T16:23:44.781Z,46.00
2022-08-30T16:28:52.120Z,45.60
2022-08-30T16:34:03.707Z,45.90
2022-08-30T16:39:09.448Z,46.10
2022-08-30T16:44:13.887Z,45.90
2022-08-30T16:49:22.520Z,46.60
2022-08-30T16:54:26.030Z,47.70
2022-08-30T16:59:32.936Z,47.70
2022-08-30T17:04:38.315Z,48.10
2022-08-30T17:09:43.395Z,48.80
2022-08-30T17:14:48.886Z,49.50
2022-08-30T17:19:54.409Z,50.10
2022-08-30T17:24:58.192Z,50.10
2022-08-30T17:30:01.717Z,49.50
2022-08-30T17:35:12.939Z,50.50
2022-08-30T17:40:19.741Z,50.10
2022-08-30T17:45:26.658Z,50.40
2022-08-30T17:50:33.552Z,50.50
2022-08-30T17:55:37.220Z,50.70
2022-08-30T18:00:40.985Z,50.50
2022-08-30T18:05:46.909Z,51.20
2022-08-30T18:10:51.272Z,51.20
2022-08-30T18:15:56.270Z,51.40
2022-08-30T18:21:03.845Z,52.30
2022-08-30T18:26:07.576Z,53.50
2022-08-30T18:31:11.849Z,55.10
2022-08-30T18:36:21.127Z,55.40
2022-08-30T18:41:29.934Z,57.10
2022-08-30T18:46:33.673Z,59.10
2022-08-30T18:51:47.549Z,58.10
2022-08-30T18:56:56.802Z,57.60
2022-08-30T19:02:00.239Z,58.40
2022-08-30T19:07:06.596Z,59.60
2022-08-30T19:12:11.615Z,59.50
2022-08-30T19:17:15.931Z,59.70
2022-08-30T19:22:39.846Z,60.00
2022-08-30T19:27:53.497Z,59.90
2022-08-30T19:32:57.804Z,60.60
2022-08-30T19:38:06.044Z,61.00
2022-08-30T19:43:09.981Z,62.30
2022-08-30T19:48:13.499Z,61.30
2022-08-30T19:53:30.626Z,62.20
2022-08-30T19:58:50.006Z,62.40
2022-08-30T20:04:02.562Z,63.10
2022-08-30T20:09:10.578Z,63.10
2022-08-30T20:14:16.980Z,66.50
2022-08-30T20:19:29.276Z,67.70
2022-08-30T20:24:44.007Z,67.70
2022-08-30T20:29:57.100Z,65.80
2022-08-30T20:35:04.559Z,65.50
2022-08-30T20:40:19.491Z,65.70
2022-08-30T20:45:30.723Z,64.10
2022-08-30T20:50:35.702Z,65.70
2022-08-30T20:55:46.587Z,65.80
2022-08-30T21:00:55.826Z,67.40
2022-08-30T21:06:03.047Z,68.40
2022-08-30T21:11:21.397Z,68.90
2022-08-30T21:16:27.664Z,67.20
2022-08-30T21:21:33.142Z,67.10
2022-08-30T21:26:45.953Z,68.10
2022-08-30T21:31:51.864Z,67.20
2022-08-30T21:36:56.612Z,69.10
2022-08-30T21:42:02.941Z,68.30
2022-08-30T21:47:13.455Z,67.30
2022-08-30T21:52:27.920Z,66.10
2022-08-30T21:57:44.934Z,67.00
2022-08-30T22:02:51.432Z,67.80
2022-08-30T22:08:04.359Z,67.00
2022-08-30T22:13:19.127Z,67.00
2022-08-30T22:18:23.939Z,67.30
2022-08-30T22:23:38.666Z,67.70
2022-08-30T22:28:46.139Z,68.00
2022-08-30T22:33:50.588Z,67.80
2022-08-30T22:39:08.404Z,68.60
2022-08-30T22:44:16.160Z,68.90
2022-08-30T22:49:20.031Z,69.90
2022-08-30T22:54:28.270Z,69.30
2022-08-30T22:59:34.013Z,68.90
2022-08-30T23:04:41.603Z,70.30
2022-08-30T23:09:45.448Z,69.60
2022-08-30T23:14:56.653Z,70.60
2022-08-30T23:20:00.485Z,71.50
2022-08-30T23:25:21.735Z,76.10
2022-08-30T23:31:01.673Z,78.20
2022-08-30T23:36:26.491Z,79.10
2022-08-30T23:41:47.512Z,74.20
2022-08-30T23:47:10.608Z,72.80
2022-08-30T23:52:31.661Z,73.70
2022-08-30T23:57:55.190Z,85.30
